Time;durP1;ratioP1;P1;durP2;ratioP2;P2;SDS_P1;SDS_P2;PMS_P1;PMS_P2;Temp;Humidity;BMP_temperature;BMP_pressure;BME280_temperature;BME280_humidity;BME280_pressure;Samples;Min_cycle;Max_cycle;Signal;HPM_P1;HPM_P2
2022/05/08 00:22:05;;;;;;;;;;;;;;;;;;;;;
2022/05/08 00:31:10;;;;;;;19.67;5.82;;;;;;;9.78;68.68;101243.25;4802665;29;20066;-84
2022/05/08 00:34:07;;;;;;;;;;;;;;;;;;;;;
2022/05/08 00:36:58;;;;;;;8.45;4.22;;;;;;;9.27;69.55;101257.19;4791667;29;20046;-83
2022/05/08 00:43:09;;;;;;;;;;;;;;;;;;;;;
2022/05/08 00:45:51;;;;;;;8.13;4.53;;;;;;;9.21;69.46;101259.69;4966381;28;20122;-84
2022/05/08 00:52:13;;;;;;;12.10;4.93;;;;;;;8.77;70.63;101236.13;5046483;28;20039;-85
2022/05/08 01:01:31;;;;;;;8.70;6.03;;;;;;;8.71;71.46;101263.06;5049069;28;20102;-85
2022/05/08 01:07:36;;;;;;;7.18;4.25;;;;;;;8.94;70.11;101260.91;5028295;28;20067;-87
2022/05/08 01:10:55;;;;;;;11.30;5.57;;;;;;;8.69;71.01;101238.59;5010604;28;20132;-86
2022/05/08 01:32:24;;;;;;;13.68;5.25;;;;;;;8.26;73.35;101235.00;4988584;28;20134;-85
2022/05/08 03:19:17;;;;;;;;;;;;;;;;;;;;;
2022/05/08 03:33:17;;;;;;;;;;;;;;;;;;;;;
2022/05/08 04:40:21;;;;;;;10.73;4.03;;;;;;;10.79;67.78;101341.00;4888915;28;20507;-81
2022/05/08 04:43:48;;;;;;;14.15;4.53;;;;;;;10.76;67.37;101323.47;4928527;28;20046;-81
2022/05/08 04:54:24;;;;;;;;;;;;;;;;;;;;;
2022/05/08 05:00:47;;;;;;;9.18;4.68;;;;;;;10.85;67.31;101291.22;4926127;28;20167;-85
2022/05/08 05:04:07;;;;;;;;;;;;;;;;;;;;;
2022/05/08 05:06:59;;;;;;;10.65;4.60;;;;;;;11.33;66.24;101290.06;4974323;28;20049;-83
2022/05/08 05:10:02;;;;;;;8.73;4.55;;;;;;;10.72;66.31;101297.16;4988727;28;20035;-88
2022/05/08 05:12:40;;;;;;;8.98;4.57;;;;;;;11.12;65.78;101314.31;4978734;28;20234;-85
2022/05/08 05:15:18;;;;;;;11.18;4.70;;;;;;;11.22;65.67;101306.56;4982248;28;20062;-85
2022/05/08 05:17:53;;;;;;;13.30;6.18;;;;;;;11.35;65.52;101298.81;4964149;28;20130;-84
2022/05/08 05:20:41;;;;;;;10.80;4.32;;;;;;;11.79;65.51;101319.41;4994222;28;20030;-84
2022/05/08 05:24:17;;;;;;;9.23;4.13;;;;;;;11.54;65.73;101309.53;4997147;28;20118;-85
2022/05/08 05:27:31;;;;;;;10.55;3.88;;;;;;;11.39;65.32;101326.88;5035364;28;20052;-84
2022/05/08 05:33:48;;;;;;;;;;;;;;;;;;;;;
2022/05/08 05:54:38;;;;;;;;;;;;;;;;;;;;;
2022/05/08 06:01:35;;;;;;;7.10;3.85;;;;;;;12.38;63.98;101312.91;4602091;29;5409925;-83
2022/05/08 06:05:25;;;;;;;;;;;;;;;;;;;;;
2022/05/08 06:07:38;;;;;;;6.97;3.30;;;;;;;13.24;63.45;101321.28;4688939;29;2998139;-81
2022/05/08 06:10:38;;;;;;;4.55;2.83;;;;;;;13.52;63.20;101282.75;4888664;29;20055;-81
2022/05/08 06:13:04;;;;;;;9.00;3.88;;;;;;;13.79;61.43;101304.78;4938153;28;20148;-82
2022/05/08 06:15:30;;;;;;;10.32;3.72;;;;;;;13.51;60.65;101291.53;4941258;28;20063;-81
2022/05/08 06:17:56;;;;;;;11.60;3.83;;;;;;;13.98;62.07;101308.31;5005873;28;20042;-82
2022/05/08 06:20:34;;;;;;;8.27;4.25;;;;;;;14.42;62.76;101299.50;5017125;28;20108;-82
2022/05/08 06:23:22;;;;;;;5.88;2.97;;;;;;;14.38;58.17;101332.06;5018317;28;20049;-81
2022/05/08 06:25:48;;;;;;;10.00;3.88;;;;;;;14.66;57.59;101303.00;5007295;28;20210;-81
2022/05/08 06:28:27;;;;;;;8.65;3.17;;;;;;;15.06;53.83;101319.59;4998051;28;20096;-86
2022/05/08 06:30:59;;;;;;;6.57;3.00;;;;;;;14.60;51.72;101295.94;5007851;28;20044;-84
2022/05/08 06:56:57;;;;;;;;;;;;;;;;;;;;;
2022/05/08 07:02:15;;;;;;;;;;;;;;;;;;;;;
2022/05/08 07:12:30;;;;;;;13.25;2.92;;;;;;;15.36;41.93;101344.16;4895619;28;20094;-87
2022/05/08 07:15:22;;;;;;;4.90;2.83;;;;;;;15.06;42.61;101326.66;4928068;28;20134;-85
2022/05/08 07:28:53;;;;;;;3.65;1.92;;;;;;;15.77;39.88;101335.13;4908414;28;20066;-85
2022/05/08 07:46:32;;;;;;;6.53;2.58;;;;;;;15.88;41.86;101351.81;4769471;29;20043;-83
2022/05/08 08:07:01;;;;;;;8.68;2.33;;;;;;;15.29;42.73;101316.84;4761213;29;20098;-89
2022/05/08 08:19:52;;;;;;;5.50;2.60;;;;;;;15.81;45.88;101345.66;4877834;29;25282;-87
2022/05/08 08:22:31;;;;;;;9.23;2.85;;;;;;;16.17;45.42;101322.44;4842495;29;20041;-78
2022/05/08 08:25:09;;;;;;;6.25;2.80;;;;;;;16.50;43.60;101356.59;4866521;29;20163;-84
2022/05/08 08:27:50;;;;;;;12.10;3.78;;;;;;;16.54;41.64;101324.78;4937450;28;20042;-81
2022/05/08 08:30:44;;;;;;;4.68;2.05;;;;;;;16.29;42.47;101317.94;4974927;28;20569;-79
2022/05/08 08:33:26;;;;;;;8.73;3.30;;;;;;;16.32;42.47;101340.00;4982500;28;20046;-78
2022/05/08 08:39:49;;;;;;;15.30;3.38;;;;;;;16.12;43.14;101289.84;4859705;29;20056;-79
2022/05/08 08:43:11;;;;;;;5.60;2.83;;;;;;;16.53;43.51;101330.06;4928906;28;20050;-79
2022/05/08 08:48:31;;;;;;;;;;;;;;;16.92;41.44;101336.75;4981932;28;20050;-78
2022/05/08 08:54:19;;;;;;;6.53;2.65;;;;;;;17.35;40.14;101323.00;4986409;28;20457;-74
2022/05/08 08:56:45;;;;;;;11.25;2.72;;;;;;;17.66;38.40;101314.59;4992201;28;20120;-73
2022/05/08 08:59:11;;;;;;;5.00;2.05;;;;;;;17.90;36.80;101343.44;4980002;28;20038;-75
2022/05/08 09:01:58;;;;;;;4.45;2.22;;;;;;;17.40;37.75;101293.75;4998779;28;20026;-75
2022/05/08 09:07:47;;;;;;;7.45;2.90;;;;;;;18.11;37.49;101331.59;5018071;28;20087;-76
2022/05/08 09:10:20;;;;;;;10.02;2.58;;;;;;;17.00;38.22;101300.44;5013190;28;20045;-76
2022/05/08 09:13:12;;;;;;;;;;;;;;;17.19;38.11;101294.91;4999339;28;20073;-76
2022/05/08 09:16:08;;;;;;;7.25;3.10;;;;;;;18.11;37.79;101339.56;5001033;28;19964;-77
2022/05/08 09:22:00;;;;;;;5.80;2.70;;;;;;;18.71;38.03;101290.69;5036214;28;20455;-76
2022/05/08 09:28:00;;;;;;;7.25;2.38;;;;;;;19.49;39.67;101300.59;5036789;28;20048;-75
2022/05/08 09:30:26;;;;;;;7.45;2.35;;;;;;;17.48;39.01;101281.22;5035890;28;20124;-75
2022/05/08 09:32:51;;;;;;;8.18;2.28;;;;;;;18.35;42.99;101284.25;5012679;28;20589;-68
2022/05/08 09:38:41;;;;;;;10.05;2.17;;;;;;;19.07;38.60;101280.22;5013229;28;20063;-67
2022/05/08 09:41:14;;;;;;;5.82;2.22;;;;;;;19.93;42.20;101294.25;5048876;28;20047;-67
2022/05/08 09:43:46;;;;;;;;;;;;;;;19.63;37.34;101285.19;5052152;28;20030;-67
2022/05/08 09:46:12;;;;;;;4.95;2.28;;;;;;;20.24;40.49;101286.34;5054946;28;19913;-68
2022/05/08 09:52:00;;;;;;;4.75;2.60;;;;;;;20.34;36.25;101318.09;5054354;28;20043;-68
2022/05/08 09:57:47;;;;;;;8.88;2.60;;;;;;;19.05;37.85;101286.47;5054645;28;20059;-67
2022/05/08 10:00:13;;;;;;;3.53;1.73;;;;;;;18.79;37.75;101279.91;5053872;28;20467;-67
2022/05/08 10:06:02;;;;;;;5.03;2.70;;;;;;;20.13;38.60;101269.75;5073744;28;20036;-67
2022/05/08 10:08:47;;;;;;;14.65;3.33;;;;;;;20.54;37.96;101297.13;5070748;28;20116;-67
2022/05/08 10:14:01;;;;;;;6.55;1.83;;;;;;;18.58;38.02;101251.06;5059397;28;20478;-68
2022/05/08 10:19:48;;;;;;;7.50;2.80;;;;;;;20.31;36.71;101248.88;5072547;28;20086;-68
2022/05/08 10:22:14;;;;;;;12.90;3.33;;;;;;;20.25;33.67;101249.91;5072716;28;20044;-68
2022/05/08 10:24:51;;;;;;;6.07;2.97;;;;;;;20.50;33.68;101246.59;5074597;28;20037;-68
2022/05/08 10:27:23;;;;;;;8.35;3.40;;;;;;;20.62;37.63;101236.47;5055576;28;20041;-68
2022/05/08 10:29:48;;;;;;;10.43;4.47;;;;;;;20.92;37.33;101284.53;5074253;28;20064;-68
2022/05/08 10:32:34;;;;;;;17.10;4.35;;;;;;;20.55;37.02;101242.00;5055777;28;20119;-67
2022/05/08 10:35:13;;;;;;;9.88;4.20;;;;;;;20.80;33.73;101291.09;5070664;28;20024;-68
2022/05/08 10:37:39;;;;;;;19.45;6.68;;;;;;;20.81;33.36;101286.63;5074338;28;20035;-67
2022/05/08 10:40:25;;;;;;;12.18;6.07;;;;;;;20.98;35.07;101283.50;5070965;28;20044;-67
2022/05/08 10:46:22;;;;;;;16.85;7.18;;;;;;;20.11;38.60;101246.72;5053663;28;20048;-67
2022/05/08 10:48:54;;;;;;;22.13;11.93;;;;;;;21.06;35.15;101262.78;5036710;28;20057;-67
2022/05/08 10:51:20;;;;;;;21.67;10.03;;;;;;;21.66;34.60;101252.94;5040109;28;20075;-67
2022/05/08 10:57:39;;;;;;;20.77;9.27;;;;;;;21.75;31.32;101244.63;5053410;28;20039;-66
2022/05/08 11:00:07;;;;;;;25.00;10.45;;;;;;;21.79;34.93;101243.56;5054688;28;20060;-67
2022/05/08 11:05:55;;;;;;;24.58;10.88;;;;;;;21.17;35.00;101191.25;5073627;28;20086;-66
2022/05/08 11:08:22;;;;;;;28.05;9.93;;;;;;;22.28;33.36;101219.66;5072844;28;20032;-68
2022/05/08 11:10:57;;;;;;;14.50;7.40;;;;;;;21.41;36.56;101194.97;5073705;28;20021;-68
2022/05/08 11:16:44;;;;;;;40.55;9.65;;;;;;;20.72;31.00;101218.44;5034240;28;20194;-68
2022/05/08 11:19:10;;;;;;;20.35;8.30;;;;;;;21.04;36.56;101209.44;5032645;28;20544;-68
2022/05/08 11:21:35;;;;;;;25.80;7.45;;;;;;;21.78;34.58;101231.16;5031471;28;20041;-68
2022/05/08 11:24:02;;;;;;;13.10;5.82;;;;;;;21.79;33.97;101200.81;5032780;28;20046;-68
2022/05/08 11:26:35;;;;;;;18.75;8.38;;;;;;;21.21;30.57;101237.41;5032491;28;20481;-67
2022/05/08 11:38:02;;;;;;;21.17;7.15;;;;;;;21.40;34.44;101214.59;5036501;28;20072;-67
2022/05/08 11:40:28;;;;;;;19.80;8.50;;;;;;;21.30;33.67;101186.41;5034177;28;20071;-67
2022/05/08 11:42:53;;;;;;;19.35;6.65;;;;;;;21.14;33.06;101212.72;5052250;28;20496;-67
2022/05/08 11:45:19;;;;;;;19.35;8.15;;;;;;;21.23;33.31;101212.41;5088364;28;20060;-67
2022/05/08 11:47:51;;;;;;;18.83;8.15;;;;;;;;;;5094272;28;20036;-67
2022/05/08 11:50:18;;;;;;;7.90;4.00;;;;;;;21.16;29.87;101192.16;5076506;28;20121;-67
2022/05/08 11:56:27;;;;;;;6.70;3.25;;;;;;;21.02;34.74;101173.06;5076779;28;20044;-67
2022/05/08 11:59:20;;;;;;;8.50;3.08;;;;;;;20.88;33.85;101184.16;5075479;28;20032;-66
2022/05/08 12:01:50;;;;;;;;;;;;;;;20.61;36.04;101161.84;5073615;28;20545;-67
2022/05/08 12:04:23;;;;;;;11.07;4.97;;;;;;;21.13;32.46;101189.59;5076082;28;19908;-67
2022/05/08 12:07:08;;;;;;;;;;;;;;;20.81;38.85;101164.81;5075281;28;20032;-67
2022/05/08 12:09:46;;;;;;;16.23;3.17;;;;;;;20.99;35.69;101149.13;5074729;28;19940;-67
2022/05/08 12:12:28;;;;;;;6.22;3.05;;;;;;;20.96;38.15;101174.13;5072710;28;20128;-67
2022/05/08 12:15:20;;;;;;;13.07;4.15;;;;;;;20.73;37.33;101128.63;5076371;28;20044;-67
2022/05/08 12:21:27;;;;;;;2.88;1.23;;;;;;;20.82;33.07;101185.22;5075921;28;20043;-66
2022/05/08 12:23:53;;;;;;;4.60;2.28;;;;;;;20.56;34.45;101153.13;5057496;28;20495;-69
2022/05/08 12:26:18;;;;;;;8.32;1.80;;;;;;;20.41;32.64;101170.41;5075875;28;20040;-66
2022/05/08 12:32:06;;;;;;;12.57;6.00;;;;;;;20.44;36.56;101133.88;5076197;28;20043;-66
2022/05/08 12:37:53;;;;;;;7.18;3.03;;;;;;;20.59;35.83;101123.69;5074578;28;20139;-67
2022/05/08 12:40:19;;;;;;;7.93;2.38;;;;;;;20.50;32.02;101158.59;5088993;28;20059;-67
2022/05/08 12:42:44;;;;;;;6.53;3.50;;;;;;;20.71;35.36;101130.44;5085123;28;20539;-66
2022/05/08 12:45:11;;;;;;;16.83;4.22;;;;;;;20.76;33.95;101152.50;5085022;28;20106;-66
2022/05/08 12:47:37;;;;;;;7.63;2.50;;;;;;;21.02;30.31;101127.69;5084216;28;20115;-67
2022/05/08 12:50:03;;;;;;;3.58;1.52;;;;;;;20.66;29.86;101106.59;5093507;28;20032;-69
2022/05/08 12:53:02;;;;;;;4.18;1.35;;;;;;;20.65;29.63;101113.72;5098799;28;20115;-75
2022/05/08 12:55:27;;;;;;;5.38;1.38;;;;;;;20.72;30.40;101145.53;5098622;28;20040;-75
2022/05/08 13:03:59;;;;;;;4.30;1.30;;;;;;;20.60;30.44;101117.44;5078431;28;20067;-75
2022/05/08 13:06:28;;;;;;;9.95;2.60;;;;;;;20.83;30.94;101096.25;5060274;28;20032;-79
2022/05/08 13:12:15;;;;;;;4.40;2.08;;;;;;;21.19;29.96;101122.69;5078863;28;20042;-76
2022/05/08 13:14:42;;;;;;;10.95;2.00;;;;;;;20.81;29.51;101122.13;5075438;28;20041;-75
2022/05/08 13:17:12;;;;;;;1.77;0.95;;;;;;;21.03;29.45;101116.09;5076742;28;20105;-78
2022/05/08 13:23:00;;;;;;;6.70;1.98;;;;;;;21.15;30.31;101105.03;5077961;28;20101;-75
2022/05/08 13:25:59;;;;;;;11.52;1.67;;;;;;;21.13;29.53;101114.00;5079035;28;20028;-75
2022/05/08 13:28:25;;;;;;;11.05;1.52;;;;;;;20.66;29.59;101110.13;5050596;28;20488;-76
2022/05/08 13:34:15;;;;;;;6.75;2.92;;;;;;;21.08;30.43;101109.69;5077654;28;20043;-76
2022/05/08 13:36:41;;;;;;;8.50;1.67;;;;;;;20.81;30.53;101058.09;5075968;28;20108;-76
2022/05/08 13:39:07;;;;;;;6.97;1.85;;;;;;;20.97;31.63;101087.81;5057830;28;20072;-76
2022/05/08 13:41:33;;;;;;;8.65;1.60;;;;;;;20.91;31.57;101076.47;5061645;28;20868;-77
2022/05/08 13:43:59;;;;;;;3.35;1.90;;;;;;;21.12;31.49;101064.22;5074135;28;20085;-76
2022/05/08 13:46:24;;;;;;;6.30;1.77;;;;;;;21.10;30.81;101077.63;5063459;28;20101;-77
2022/05/08 13:48:51;;;;;;;4.43;2.03;;;;;;;20.86;31.42;101047.25;5070654;28;20472;-76
2022/05/08 13:51:26;;;;;;;4.38;1.52;;;;;;;21.03;31.11;101094.75;5074373;28;20107;-76
2022/05/08 13:53:53;;;;;;;3.13;1.25;;;;;;;21.10;30.20;101052.75;5086231;28;20143;-77
2022/05/08 13:56:19;;;;;;;5.05;2.55;;;;;;;20.94;30.50;101084.38;5075686;28;20116;-76
2022/05/08 13:58:46;;;;;;;3.60;1.75;;;;;;;20.94;29.70;101065.72;5097082;28;20412;-76
2022/05/08 14:01:22;;;;;;;5.50;3.60;;;;;;;20.94;29.51;101052.38;5094764;28;20498;-77
2022/05/08 14:03:49;;;;;;;5.05;2.28;;;;;;;20.88;30.12;101050.75;5081179;28;20040;-76
2022/05/08 14:06:15;;;;;;;3.30;1.55;;;;;;;21.05;31.64;101077.78;5075123;28;20110;-76
2022/05/08 14:08:55;;;;;;;5.40;1.70;;;;;;;20.77;30.38;101055.59;5065812;28;20414;-77
2022/05/08 14:11:23;;;;;;;6.35;1.80;;;;;;;21.15;30.09;101048.97;5069198;28;20427;-76
2022/05/08 14:13:49;;;;;;;5.90;1.98;;;;;;;21.13;29.97;101044.63;5086987;28;20046;-76
2022/05/08 14:16:18;;;;;;;9.48;2.42;;;;;;;21.13;30.27;101065.97;5063496;28;20063;-76
2022/05/08 14:18:53;;;;;;;5.00;1.75;;;;;;;21.22;31.02;101071.00;5051048;28;20056;-76
2022/05/08 14:21:20;;;;;;;6.90;2.83;;;;;;;21.31;30.12;101054.66;5084947;28;20479;-76
2022/05/08 14:23:45;;;;;;;3.83;2.03;;;;;;;21.27;31.17;101047.69;5082640;28;20127;-76
2022/05/08 14:26:12;;;;;;;2.28;1.30;;;;;;;21.46;29.69;101058.63;5056833;28;21274;-76
2022/05/08 14:28:38;;;;;;;4.65;2.13;;;;;;;21.46;30.71;101071.97;5064684;28;20027;-75
2022/05/08 14:36:34;;;;;;;2.92;1.25;;;;;;;21.48;31.34;101080.81;5076398;28;20087;-76
2022/05/08 14:39:02;;;;;;;3.95;1.27;;;;;;;21.20;29.60;101046.16;5053192;28;20076;-76
2022/05/08 14:41:28;;;;;;;2.67;1.30;;;;;;;21.67;29.02;101083.72;5062727;28;20048;-76
2022/05/08 14:43:54;;;;;;;3.70;1.48;;;;;;;21.60;29.38;101066.16;5062984;28;20039;-76
2022/05/08 14:46:23;;;;;;;5.03;1.63;;;;;;;21.47;29.79;101079.09;5059922;28;20384;-76
2022/05/08 14:48:50;;;;;;;3.15;1.30;;;;;;;21.28;30.18;101057.44;5073471;28;20036;-76
2022/05/08 14:51:15;;;;;;;5.15;1.90;;;;;;;21.16;30.52;101060.53;5069198;28;20523;-76
2022/05/08 14:53:41;;;;;;;2.83;1.63;;;;;;;21.16;30.59;101040.03;5062751;28;20788;-76
2022/05/08 14:56:09;;;;;;;7.80;2.60;;;;;;;21.19;30.59;101026.59;5084286;28;20024;-75
2022/05/08 14:58:35;;;;;;;4.50;1.60;;;;;;;21.02;30.49;101052.97;5083452;28;20028;-75
2022/05/08 15:01:02;;;;;;;6.65;1.33;;;;;;;21.02;29.83;101034.28;5080704;28;20072;-76
2022/05/08 15:03:30;;;;;;;2.40;1.40;;;;;;;20.95;30.05;101038.09;5063600;28;20039;-76
2022/05/08 15:05:56;;;;;;;7.25;1.40;;;;;;;21.24;29.81;101059.34;5067859;28;20494;-76
2022/05/08 15:08:23;;;;;;;6.03;1.85;;;;;;;21.01;29.18;101030.75;5082060;28;20090;-76
2022/05/08 15:10:49;;;;;;;9.20;2.53;;;;;;;21.03;31.69;101031.59;5087189;28;20466;-75
2022/05/08 15:13:20;;;;;;;6.68;1.95;;;;;;;21.18;29.92;101038.19;5075713;28;20051;-75
2022/05/08 15:15:46;;;;;;;6.03;2.83;;;;;;;20.99;28.35;101029.06;5087309;28;20028;-76
2022/05/08 15:21:04;;;;;;;4.43;1.95;;;;;;;21.09;28.40;101049.16;5086489;28;20122;-76
2022/05/08 15:23:32;;;;;;;5.15;1.33;;;;;;;21.01;29.90;101065.44;5074273;28;20040;-76
2022/05/08 15:25:57;;;;;;;3.00;1.17;;;;;;;20.92;28.33;101014.19;5084956;28;20370;-75
2022/05/08 15:28:23;;;;;;;6.88;1.80;;;;;;;21.02;29.24;101034.28;5087620;28;20126;-76
2022/05/08 15:30:50;;;;;;;4.40;1.73;;;;;;;21.02;29.71;101066.31;5082281;28;20053;-75
2022/05/08 15:33:18;;;;;;;4.30;2.08;;;;;;;20.83;30.00;101048.22;5083322;28;20044;-75
2022/05/08 15:35:53;;;;;;;4.72;2.33;;;;;;;20.96;29.67;101070.06;5074238;28;20557;-76
2022/05/08 15:38:19;;;;;;;3.30;1.77;;;;;;;20.97;29.83;101076.28;5084391;28;20020;-76
2022/05/08 15:40:47;;;;;;;5.38;2.25;;;;;;;21.02;29.40;101066.31;5056179;28;20031;-75
2022/05/08 15:43:14;;;;;;;4.95;1.90;;;;;;;20.90;29.38;101048.91;5082197;28;20071;-76
2022/05/08 15:45:39;;;;;;;3.40;1.75;;;;;;;20.81;29.34;101034.09;5053536;28;20036;-76
2022/05/08 15:48:23;;;;;;;8.32;1.73;;;;;;;20.74;29.56;101027.19;5057227;28;20710;-76
2022/05/08 15:50:50;;;;;;;4.93;2.17;;;;;;;20.49;31.21;101031.56;5086888;28;20115;-76
2022/05/08 15:53:19;;;;;;;9.45;2.88;;;;;;;20.64;31.83;101041.75;5082279;28;20024;-76
2022/05/08 15:55:46;;;;;;;4.25;1.60;;;;;;;20.34;33.02;101031.06;5085839;28;20024;-76
2022/05/08 15:58:15;;;;;;;8.20;2.92;;;;;;;20.26;33.48;101040.25;5080699;28;20052;-75
2022/05/08 16:00:43;;;;;;;5.75;2.35;;;;;;;20.41;33.32;101043.28;5072285;28;20423;-76
2022/05/08 16:03:10;;;;;;;13.05;2.53;;;;;;;20.39;34.90;101044.25;5079511;28;20494;-76
2022/05/08 16:05:37;;;;;;;5.03;2.92;;;;;;;20.26;34.38;101043.78;5073006;28;20048;-76
2022/05/08 16:08:04;;;;;;;8.98;3.22;;;;;;;20.24;33.61;101037.63;5071340;28;20039;-76
2022/05/08 16:10:30;;;;;;;8.23;2.78;;;;;;;20.17;33.88;101028.94;5059552;28;20035;-76
2022/05/08 16:24:26;;;;;;;6.80;2.35;;;;;;;19.86;34.90;101039.63;5075158;28;20075;-76
2022/05/08 16:26:56;;;;;;;12.18;3.47;;;;;;;19.85;34.58;101032.53;5074590;28;20035;-76
2022/05/08 16:29:23;;;;;;;17.15;2.70;;;;;;;19.77;34.93;101035.41;5055417;28;20123;-75
2022/05/08 16:31:50;;;;;;;5.30;2.50;;;;;;;19.91;34.97;101051.00;5084079;28;20372;-75
2022/05/08 16:34:16;;;;;;;7.10;2.70;;;;;;;19.56;34.72;101025.34;5079496;28;20089;-77
2022/05/08 16:36:52;;;;;;;4.68;2.17;;;;;;;19.57;35.16;101059.91;5041226;28;20473;-74
2022/05/08 16:39:18;;;;;;;8.35;3.85;;;;;;;19.54;35.65;101044.00;5077042;28;20164;-77
2022/05/08 16:41:44;;;;;;;7.68;2.92;;;;;;;19.57;34.79;101030.63;5071905;28;20138;-75
2022/05/08 16:44:14;;;;;;;11.13;2.78;;;;;;;19.55;35.36;101036.88;5068390;28;20048;-75
2022/05/08 16:46:40;;;;;;;4.47;1.83;;;;;;;19.65;35.27;101049.03;5052749;28;22437;-76
2022/05/08 16:49:06;;;;;;;14.00;4.07;;;;;;;19.49;35.49;101029.94;5065801;28;20039;-76
2022/05/08 16:51:53;;;;;;;5.40;2.80;;;;;;;19.66;34.52;101040.13;5063142;28;20040;-76
2022/05/08 16:54:33;;;;;;;7.45;3.13;;;;;;;18.95;36.31;101034.00;5067729;28;20036;-76
2022/05/08 16:56:59;;;;;;;11.80;2.58;;;;;;;19.17;36.34;101037.00;5051826;28;20545;-75
2022/05/08 16:59:25;;;;;;;5.82;3.25;;;;;;;19.33;35.67;101080.03;5051022;28;20040;-74
2022/05/08 17:01:54;;;;;;;5.95;2.83;;;;;;;19.23;36.02;101037.75;5057270;28;20480;-76
2022/05/08 17:04:20;;;;;;;8.05;2.75;;;;;;;19.34;35.82;101035.69;5080403;28;20040;-76
2022/05/08 17:06:46;;;;;;;6.20;3.20;;;;;;;19.29;36.17;101038.47;5059039;28;20432;-75
2022/05/08 17:09:12;;;;;;;4.88;2.75;;;;;;;19.08;35.88;101037.25;5054432;28;20040;-76
2022/05/08 17:11:37;;;;;;;10.88;3.42;;;;;;;19.24;35.90;101039.50;5058634;28;20051;-76
2022/05/08 17:14:23;;;;;;;6.88;2.90;;;;;;;19.40;35.83;101078.09;5058819;28;20499;-75
2022/05/08 17:16:49;;;;;;;9.43;3.45;;;;;;;19.30;35.71;101072.16;5066168;28;20036;-76
2022/05/08 17:19:15;;;;;;;8.15;2.40;;;;;;;19.09;36.05;101072.69;5070089;28;20060;-76
2022/05/08 17:21:44;;;;;;;7.55;3.47;;;;;;;19.08;36.23;101077.16;5079343;28;20085;-76
2022/05/08 17:24:10;;;;;;;13.43;3.03;;;;;;;18.60;36.49;101039.25;5062380;28;20033;-76
2022/05/08 17:29:21;;;;;;;7.57;3.10;;;;;;;18.69;37.38;101063.84;5059934;28;20140;-76
2022/05/08 17:31:51;;;;;;;7.03;3.42;;;;;;;18.76;37.13;101054.84;5065216;28;20653;-76
2022/05/08 17:34:21;;;;;;;7.03;3.83;;;;;;;18.83;37.56;101057.38;5065805;28;20167;-75
2022/05/08 17:36:49;;;;;;;12.18;3.28;;;;;;;19.00;37.07;101086.22;5060675;28;20122;-76
2022/05/08 17:39:25;;;;;;;8.05;3.80;;;;;;;18.74;37.23;101047.78;5060670;28;20044;-75
2022/05/08 18:11:26;;;;;;;;;;;;;;;;;;;;;
2022/05/08 18:14:06;;;;;;;19.60;5.82;;;;;;;17.97;40.59;101064.53;4978063;28;20945;-80
2022/05/08 18:17:22;;;;;;;13.68;6.88;;;;;;;17.59;42.08;101074.94;4998659;28;20033;-80
2022/05/08 18:19:53;;;;;;;15.70;7.38;;;;;;;17.09;43.66;101082.88;5077585;28;20436;-80
2022/05/08 18:22:19;;;;;;;20.80;11.48;;;;;;;17.02;44.36;101064.41;5079088;28;20032;-79
2022/05/08 18:24:45;;;;;;;17.92;12.52;;;;;;;16.75;45.48;101074.53;5046646;28;20043;-80
2022/05/08 18:27:11;;;;;;;16.90;10.13;;;;;;;16.90;45.48;101081.41;5074833;28;23015;-81
2022/05/08 18:29:38;;;;;;;22.98;11.07;;;;;;;17.20;45.67;101098.59;5078194;28;20071;-83
2022/05/08 18:32:29;;;;;;;18.75;9.68;;;;;;;17.30;45.08;101092.25;5050363;28;20141;-81
2022/05/08 18:34:56;;;;;;;13.55;8.50;;;;;;;17.26;45.09;101087.03;5049193;28;20032;-81
2022/05/08 18:37:30;;;;;;;12.18;7.30;;;;;;;17.17;45.53;101090.69;5051376;28;20040;-81
2022/05/08 18:43:01;;;;;;;6.30;4.23;;;;;;;17.00;45.84;101106.03;5003999;28;20110;-82
2022/05/08 18:45:38;;;;;;;7.28;3.53;;;;;;;17.23;46.33;101129.50;5057525;28;20101;-79
2022/05/08 19:28:17;;;;;;;8.25;3.83;;;;;;;16.23;51.57;101136.16;5041450;28;20502;-79
2022/05/08 19:40:11;;;;;;;15.20;4.88;;;;;;;15.82;52.43;101126.88;5079974;28;20035;-81
2022/05/08 19:45:58;;;;;;;9.90;3.67;;;;;;;15.63;52.31;101152.63;5082635;28;20039;-79
2022/05/08 19:48:36;;;;;;;;;;;;;;;;;;;;;
2022/05/08 19:54:34;;;;;;;8.40;3.55;;;;;;;15.61;52.35;101136.75;5056184;28;20078;-81
2022/05/08 20:00:33;;;;;;;8.88;3.85;;;;;;;15.46;53.46;101134.25;5065798;28;20040;-80
2022/05/08 20:06:30;;;;;;;8.98;3.58;;;;;;;15.41;53.19;101123.72;5060995;28;20036;-80
2022/05/08 20:08:56;;;;;;;8.88;3.58;;;;;;;15.34;54.48;101131.72;5057761;28;20048;-79
2022/05/08 20:11:24;;;;;;;9.20;2.25;;;;;;;15.37;53.58;101124.63;5061258;28;20034;-78
2022/05/08 20:13:52;;;;;;;16.50;3.33;;;;;;;15.44;54.27;101128.09;5072748;28;20456;-79
2022/05/08 20:19:43;;;;;;;9.98;3.60;;;;;;;15.38;54.92;101144.91;5039785;28;20036;-80
2022/05/08 20:26:49;;;;;;;6.88;3.67;;;;;;;15.12;55.63;101123.91;5035203;28;20131;-81
2022/05/08 20:45:48;;;;;;;19.15;3.22;;;;;;;15.13;56.00;101132.75;5049438;28;20119;-78
2022/05/08 20:48:14;;;;;;;6.75;3.72;;;;;;;14.93;57.03;101123.16;5060786;28;20171;-81
2022/05/08 20:50:48;;;;;;;10.55;4.35;;;;;;;15.07;56.54;101135.44;5023891;28;20046;-79
2022/05/08 20:56:40;;;;;;;8.23;3.25;;;;;;;15.12;57.32;101181.22;5040871;28;20040;-81
2022/05/08 21:02:27;;;;;;;5.90;2.67;;;;;;;15.09;56.92;101163.59;5040112;28;20037;-74
2022/05/08 21:15:01;;;;;;;6.95;2.92;;;;;;;15.09;58.66;101190.03;5041539;28;20043;-74
2022/05/08 21:17:28;;;;;;;6.40;3.35;;;;;;;15.05;58.01;101183.00;5040020;28;20489;-76
2022/05/08 21:23:16;;;;;;;6.97;3.85;;;;;;;14.99;57.59;101181.28;5060696;28;20094;-76
2022/05/08 21:25:59;;;;;;;15.60;4.22;;;;;;;14.82;57.72;101158.47;5043108;28;20032;-75
2022/05/08 21:35:10;;;;;;;11.18;3.05;;;;;;;14.99;57.78;101194.50;5078829;28;20052;-75
2022/05/08 21:37:59;;;;;;;5.32;2.38;;;;;;;14.88;58.00;101203.38;5045509;28;20034;-73
2022/05/08 21:40:27;;;;;;;5.55;2.42;;;;;;;14.34;58.41;101138.41;5080220;28;20033;-75
2022/05/08 21:43:22;;;;;;;9.25;3.75;;;;;;;14.54;58.47;101156.88;5080202;28;20064;-74
2022/05/08 21:46:26;;;;;;;6.32;3.65;;;;;;;14.70;58.36;101197.31;5066181;28;20044;-74
2022/05/08 21:48:52;;;;;;;7.53;3.58;;;;;;;14.78;58.26;101198.13;5022533;28;20036;-77
2022/05/08 21:51:25;;;;;;;10.57;2.97;;;;;;;14.51;58.35;101174.44;5082139;28;20071;-75
2022/05/08 21:53:50;;;;;;;9.85;3.38;;;;;;;14.64;58.71;101197.31;5078969;28;20078;-76
2022/05/08 21:56:17;;;;;;;10.15;2.80;;;;;;;14.48;58.57;101159.50;5079256;28;20586;-74
2022/05/08 21:58:46;;;;;;;6.35;2.78;;;;;;;14.44;58.63;101172.72;5090658;28;20109;-74
2022/05/08 22:01:13;;;;;;;7.85;2.50;;;;;;;14.63;59.28;101199.97;5079686;28;20083;-74
2022/05/08 22:03:50;;;;;;;7.95;3.03;;;;;;;14.26;61.06;101163.13;5080070;28;20119;-75
2022/05/08 22:06:16;;;;;;;10.23;2.97;;;;;;;14.29;61.36;101165.72;5087082;28;20039;-75
2022/05/08 22:08:42;;;;;;;9.48;3.63;;;;;;;14.37;60.27;101169.22;5092221;28;20115;-75
2022/05/08 22:11:26;;;;;;;8.50;4.15;;;;;;;14.34;59.48;101169.22;5084974;28;20383;-74
2022/05/08 22:13:52;;;;;;;16.85;3.63;;;;;;;14.36;59.74;101170.09;5087022;28;20028;-75
2022/05/08 22:16:17;;;;;;;9.15;3.75;;;;;;;14.23;60.52;101166.59;5081767;28;20032;-76
2022/05/08 22:21:28;;;;;;;12.23;4.20;;;;;;;14.41;62.13;101188.56;5082281;28;20047;-75
2022/05/08 22:23:55;;;;;;;8.32;3.58;;;;;;;14.33;61.91;101193.88;5085211;28;20048;-75
2022/05/08 22:26:22;;;;;;;7.57;2.40;;;;;;;14.02;63.27;101156.97;5069278;28;20483;-76
2022/05/08 22:28:55;;;;;;;7.10;3.17;;;;;;;13.85;62.92;101162.31;5082529;28;20056;-74
2022/05/08 22:31:21;;;;;;;7.38;3.60;;;;;;;13.79;62.13;101158.78;5072630;28;20099;-76
2022/05/08 22:33:55;;;;;;;6.47;2.55;;;;;;;14.05;62.25;101146.44;5077897;28;20880;-76
2022/05/08 22:36:22;;;;;;;8.10;3.58;;;;;;;13.79;64.00;101159.69;5068600;28;20073;-75
2022/05/08 22:38:48;;;;;;;6.50;3.13;;;;;;;14.02;64.04;101186.00;5076151;28;20516;-75
2022/05/08 22:41:22;;;;;;;6.40;3.60;;;;;;;13.87;62.38;101142.06;5078479;28;20374;-76
2022/05/08 22:43:53;;;;;;;7.30;2.40;;;;;;;13.85;63.28;101153.50;5086958;28;20024;-76